sensor_id;sensor_type;location;lat;lon;timestamp;pressure;altitude;pressure_sealevel;temperature;humidity
43420;BME280;29017;51.514;-0.178;2023-04-08T00:00:49;101937.47;;;11.15;78.95
43420;BME280;29017;51.514;-0.178;2023-04-08T00:03:16;101940.38;;;11.12;79.77
43420;BME280;29017;51.514;-0.178;2023-04-08T00:05:43;101935.63;;;11.06;80.06
43420;BME280;29017;51.514;-0.178;2023-04-08T00:08:10;101936.56;;;11.05;80.85
43420;BME280;29017;51.514;-0.178;2023-04-08T00:10:37;101936.97;;;11.00;80.60
43420;BME280;29017;51.514;-0.178;2023-04-08T00:13:04;101937.34;;;10.96;80.40
43420;BME280;29017;51.514;-0.178;2023-04-08T00:15:31;101941.22;;;10.92;80.51
43420;BME280;29017;51.514;-0.178;2023-04-08T00:17:58;101940.38;;;10.91;81.09
43420;BME280;29017;51.514;-0.178;2023-04-08T00:20:25;101935.34;;;10.88;81.53
43420;BME280;29017;51.514;-0.178;2023-04-08T00:22:52;101940.88;;;10.85;81.77
43420;BME280;29017;51.514;-0.178;2023-04-08T00:25:19;101941.25;;;10.81;81.58
43420;BME280;29017;51.514;-0.178;2023-04-08T00:27:50;101944.28;;;10.76;81.66
43420;BME280;29017;51.514;-0.178;2023-04-08T00:30:17;101940.06;;;10.73;81.53
43420;BME280;29017;51.514;-0.178;2023-04-08T00:32:45;101939.38;;;10.71;82.30
43420;BME280;29017;51.514;-0.178;2023-04-08T00:35:12;101942.25;;;10.68;82.76
43420;BME280;29017;51.514;-0.178;2023-04-08T00:37:39;101941.41;;;10.68;83.25
43420;BME280;29017;51.514;-0.178;2023-04-08T00:40:07;101943.47;;;10.64;82.89
43420;BME280;29017;51.514;-0.178;2023-04-08T00:42:34;101948.00;;;10.62;82.71
43420;BME280;29017;51.514;-0.178;2023-04-08T00:45:01;101941.91;;;10.62;82.74
43420;BME280;29017;51.514;-0.178;2023-04-08T00:47:28;101943.84;;;10.60;83.23
43420;BME280;29017;51.514;-0.178;2023-04-08T00:49:56;101950.19;;;10.57;83.43
43420;BME280;29017;51.514;-0.178;2023-04-08T00:52:23;101946.13;;;10.53;83.89
43420;BME280;29017;51.514;-0.178;2023-04-08T00:54:50;101946.97;;;10.54;84.01
43420;BME280;29017;51.514;-0.178;2023-04-08T00:57:16;101945.56;;;10.50;83.55
43420;BME280;29017;51.514;-0.178;2023-04-08T00:59:43;101943.03;;;10.48;83.90
43420;BME280;29017;51.514;-0.178;2023-04-08T01:09:40;101945.47;;;10.40;85.04
43420;BME280;29017;51.514;-0.178;2023-04-08T01:12:09;101946.69;;;10.36;84.81
43420;BME280;29017;51.514;-0.178;2023-04-08T01:14:38;101945.00;;;10.35;84.70
43420;BME280;29017;51.514;-0.178;2023-04-08T01:17:08;101952.91;;;10.35;85.16
43420;BME280;29017;51.514;-0.178;2023-04-08T01:19:37;101943.34;;;10.34;85.68
43420;BME280;29017;51.514;-0.178;2023-04-08T01:24:35;101943.44;;;10.33;86.44
43420;BME280;29017;51.514;-0.178;2023-04-08T01:27:04;101944.53;;;10.30;86.58
43420;BME280;29017;51.514;-0.178;2023-04-08T01:29:32;101948.50;;;10.24;86.14
43420;BME280;29017;51.514;-0.178;2023-04-08T01:32:00;101940.13;;;10.19;86.08
43420;BME280;29017;51.514;-0.178;2023-04-08T01:34:27;101949.09;;;10.17;85.71
43420;BME280;29017;51.514;-0.178;2023-04-08T01:36:55;101946.47;;;10.17;86.58
43420;BME280;29017;51.514;-0.178;2023-04-08T01:39:24;101942.63;;;10.21;88.83
43420;BME280;29017;51.514;-0.178;2023-04-08T01:41:52;101944.56;;;10.19;88.12
43420;BME280;29017;51.514;-0.178;2023-04-08T01:44:20;101942.25;;;10.14;87.82
43420;BME280;29017;51.514;-0.178;2023-04-08T01:46:48;101940.84;;;10.10;87.49
43420;BME280;29017;51.514;-0.178;2023-04-08T01:49:16;101940.97;;;10.09;87.50
43420;BME280;29017;51.514;-0.178;2023-04-08T01:51:43;101945.75;;;10.04;86.47
43420;BME280;29017;51.514;-0.178;2023-04-08T01:54:12;101944.06;;;10.03;86.25
43420;BME280;29017;51.514;-0.178;2023-04-08T01:56:40;101946.81;;;10.01;86.55
43420;BME280;29017;51.514;-0.178;2023-04-08T01:59:08;101944.06;;;10.03;86.64
43420;BME280;29017;51.514;-0.178;2023-04-08T02:01:36;101954.31;;;10.06;86.59
43420;BME280;29017;51.514;-0.178;2023-04-08T02:04:04;101951.59;;;10.07;87.70
43420;BME280;29017;51.514;-0.178;2023-04-08T02:06:31;101947.16;;;10.08;87.24
43420;BME280;29017;51.514;-0.178;2023-04-08T02:08:59;101954.31;;;10.06;86.54
43420;BME280;29017;51.514;-0.178;2023-04-08T02:11:27;101951.84;;;10.04;86.65
43420;BME280;29017;51.514;-0.178;2023-04-08T02:13:54;101945.16;;;10.00;86.54
43420;BME280;29017;51.514;-0.178;2023-04-08T02:16:22;101946.34;;;9.96;85.94
43420;BME280;29017;51.514;-0.178;2023-04-08T02:18:54;101943.00;;;9.94;86.32
43420;BME280;29017;51.514;-0.178;2023-04-08T02:21:25;101933.19;;;9.96;87.42
43420;BME280;29017;51.514;-0.178;2023-04-08T02:23:53;101937.50;;;9.97;88.06
43420;BME280;29017;51.514;-0.178;2023-04-08T02:26:21;101933.34;;;9.95;87.01
43420;BME280;29017;51.514;-0.178;2023-04-08T02:28:49;101939.53;;;9.94;86.37
43420;BME280;29017;51.514;-0.178;2023-04-08T02:31:19;101934.75;;;9.87;85.91
43420;BME280;29017;51.514;-0.178;2023-04-08T02:33:47;101935.13;;;9.83;85.79
43420;BME280;29017;51.514;-0.178;2023-04-08T02:36:14;101937.75;;;9.83;86.50
43420;BME280;29017;51.514;-0.178;2023-04-08T02:38:46;101938.59;;;9.83;86.70
43420;BME280;29017;51.514;-0.178;2023-04-08T02:41:13;101938.47;;;9.85;86.90
43420;BME280;29017;51.514;-0.178;2023-04-08T02:43:41;101946.38;;;9.85;86.85
43420;BME280;29017;51.514;-0.178;2023-04-08T02:46:08;101947.44;;;9.82;87.07
43420;BME280;29017;51.514;-0.178;2023-04-08T02:48:36;101956.03;;;9.84;87.30
43420;BME280;29017;51.514;-0.178;2023-04-08T02:51:03;101952.91;;;9.91;89.55
43420;BME280;29017;51.514;-0.178;2023-04-08T02:53:30;101954.13;;;9.86;89.05
43420;BME280;29017;51.514;-0.178;2023-04-08T02:55:57;101960.31;;;9.85;88.10
43420;BME280;29017;51.514;-0.178;2023-04-08T02:58:24;101962.25;;;9.83;87.91
43420;BME280;29017;51.514;-0.178;2023-04-08T03:00:51;101961.41;;;9.83;89.17
43420;BME280;29017;51.514;-0.178;2023-04-08T03:03:18;101967.41;;;9.85;89.68
43420;BME280;29017;51.514;-0.178;2023-04-08T03:05:45;101958.69;;;9.84;89.51
43420;BME280;29017;51.514;-0.178;2023-04-08T03:08:12;101975.41;;;9.83;89.59
43420;BME280;29017;51.514;-0.178;2023-04-08T03:10:39;101968.56;;;9.81;90.06
43420;BME280;29017;51.514;-0.178;2023-04-08T03:13:06;101969.78;;;9.77;89.78
43420;BME280;29017;51.514;-0.178;2023-04-08T03:15:33;101982.31;;;9.73;89.39
43420;BME280;29017;51.514;-0.178;2023-04-08T03:18:00;101974.66;;;9.70;89.33
43420;BME280;29017;51.514;-0.178;2023-04-08T03:20:27;101970.13;;;9.72;89.79
43420;BME280;29017;51.514;-0.178;2023-04-08T03:22:53;101969.19;;;9.73;90.08
43420;BME280;29017;51.514;-0.178;2023-04-08T03:25:20;101973.50;;;9.74;90.06
43420;BME280;29017;51.514;-0.178;2023-04-08T03:27:47;101971.69;;;9.75;90.07
43420;BME280;29017;51.514;-0.178;2023-04-08T03:30:14;101982.31;;;9.73;89.97
43420;BME280;29017;51.514;-0.178;2023-04-08T03:32:41;101983.28;;;9.72;90.13
43420;BME280;29017;51.514;-0.178;2023-04-08T03:35:08;101977.06;;;9.73;90.75
43420;BME280;29017;51.514;-0.178;2023-04-08T03:37:36;101979.81;;;9.72;90.78
43420;BME280;29017;51.514;-0.178;2023-04-08T03:40:03;101987.69;;;9.72;91.01
43420;BME280;29017;51.514;-0.178;2023-04-08T03:42:29;101988.53;;;9.72;90.46
43420;BME280;29017;51.514;-0.178;2023-04-08T03:44:56;101991.25;;;9.71;90.01
43420;BME280;29017;51.514;-0.178;2023-04-08T03:47:24;101999.41;;;9.68;90.01
43420;BME280;29017;51.514;-0.178;2023-04-08T03:49:52;101994.25;;;9.66;90.44
43420;BME280;29017;51.514;-0.178;2023-04-08T03:52:19;101998.44;;;9.69;92.29
43420;BME280;29017;51.514;-0.178;2023-04-08T03:54:46;101997.59;;;9.68;92.52
43420;BME280;29017;51.514;-0.178;2023-04-08T03:57:13;102002.13;;;9.66;92.00
43420;BME280;29017;51.514;-0.178;2023-04-08T03:59:40;102002.38;;;9.63;90.97
43420;BME280;29017;51.514;-0.178;2023-04-08T04:02:07;102010.25;;;9.63;90.94
43420;BME280;29017;51.514;-0.178;2023-04-08T04:04:34;102008.47;;;9.64;92.01
43420;BME280;29017;51.514;-0.178;2023-04-08T04:07:02;102005.84;;;9.64;92.54
43420;BME280;29017;51.514;-0.178;2023-04-08T04:09:29;102008.56;;;9.62;92.37
43420;BME280;29017;51.514;-0.178;2023-04-08T04:11:56;102007.16;;;9.58;91.54
43420;BME280;29017;51.514;-0.178;2023-04-08T04:14:23;102011.66;;;9.56;91.12
43420;BME280;29017;51.514;-0.178;2023-04-08T04:16:50;102007.16;;;9.58;92.79
43420;BME280;29017;51.514;-0.178;2023-04-08T04:19:17;102002.00;;;9.57;93.00
43420;BME280;29017;51.514;-0.178;2023-04-08T04:21:44;102009.19;;;9.55;93.14
43420;BME280;29017;51.514;-0.178;2023-04-08T04:24:11;102019.91;;;9.52;93.09
43420;BME280;29017;51.514;-0.178;2023-04-08T04:26:39;102017.38;;;9.50;92.32
43420;BME280;29017;51.514;-0.178;2023-04-08T04:29:06;102020.00;;;9.50;91.94
43420;BME280;29017;51.514;-0.178;2023-04-08T04:31:33;102021.09;;;9.48;92.26
43420;BME280;29017;51.514;-0.178;2023-04-08T04:34:00;102020.50;;;9.44;92.04
43420;BME280;29017;51.514;-0.178;2023-04-08T04:36:27;102021.19;;;9.46;92.85
43420;BME280;29017;51.514;-0.178;2023-04-08T04:38:54;102022.03;;;9.47;93.13
43420;BME280;29017;51.514;-0.178;2023-04-08T04:41:22;102019.41;;;9.47;92.96
43420;BME280;29017;51.514;-0.178;2023-04-08T04:43:49;102031.34;;;9.51;94.25
43420;BME280;29017;51.514;-0.178;2023-04-08T04:46:16;102030.53;;;9.50;94.11
43420;BME280;29017;51.514;-0.178;2023-04-08T04:48:43;102027.28;;;9.47;92.42
43420;BME280;29017;51.514;-0.178;2023-04-08T04:51:09;102036.13;;;9.45;93.17
43420;BME280;29017;51.514;-0.178;2023-04-08T04:53:36;102040.44;;;9.47;93.74
43420;BME280;29017;51.514;-0.178;2023-04-08T04:56:03;102038.53;;;9.49;94.44
43420;BME280;29017;51.514;-0.178;2023-04-08T04:58:31;102036.84;;;9.48;94.35
43420;BME280;29017;51.514;-0.178;2023-04-08T05:00:57;102038.75;;;9.45;93.09
43420;BME280;29017;51.514;-0.178;2023-04-08T05:03:24;102045.09;;;9.43;92.17
43420;BME280;29017;51.514;-0.178;2023-04-08T05:05:52;102046.88;;;9.42;92.71
43420;BME280;29017;51.514;-0.178;2023-04-08T05:08:20;102044.13;;;9.44;94.46
43420;BME280;29017;51.514;-0.178;2023-04-08T05:10:47;102042.47;;;9.43;94.91
43420;BME280;29017;51.514;-0.178;2023-04-08T05:13:16;102046.78;;;9.44;94.85
43420;BME280;29017;51.514;-0.178;2023-04-08T05:15:44;102052.22;;;9.41;94.28
43420;BME280;29017;51.514;-0.178;2023-04-08T05:18:11;102048.06;;;9.38;93.34
43420;BME280;29017;51.514;-0.178;2023-04-08T05:20:38;102056.03;;;9.37;93.13
43420;BME280;29017;51.514;-0.178;2023-04-08T05:23:05;102053.66;;;9.34;92.66
43420;BME280;29017;51.514;-0.178;2023-04-08T05:25:33;102049.25;;;9.34;93.54
43420;BME280;29017;51.514;-0.178;2023-04-08T05:28:00;102055.44;;;9.33;93.29
43420;BME280;29017;51.514;-0.178;2023-04-08T05:30:27;102053.53;;;9.35;93.15
43420;BME280;29017;51.514;-0.178;2023-04-08T05:32:54;102057.94;;;9.35;92.93
43420;BME280;29017;51.514;-0.178;2023-04-08T05:35:24;102060.56;;;9.35;92.90
43420;BME280;29017;51.514;-0.178;2023-04-08T05:37:53;102067.41;;;9.37;93.91
43420;BME280;29017;51.514;-0.178;2023-04-08T05:40:20;102062.75;;;9.41;94.38
43420;BME280;29017;51.514;-0.178;2023-04-08T05:42:47;102067.03;;;9.42;93.33
43420;BME280;29017;51.514;-0.178;2023-04-08T05:45:14;102078.41;;;9.42;92.19
43420;BME280;29017;51.514;-0.178;2023-04-08T05:47:42;102079.00;;;9.46;93.26
43420;BME280;29017;51.514;-0.178;2023-04-08T05:50:09;102072.44;;;9.52;93.57
43420;BME280;29017;51.514;-0.178;2023-04-08T05:52:40;102072.25;;;9.55;94.81
43420;BME280;29017;51.514;-0.178;2023-04-08T05:55:08;102077.25;;;9.58;95.40
43420;BME280;29017;51.514;-0.178;2023-04-08T05:57:35;102072.84;;;9.58;94.75
43420;BME280;29017;51.514;-0.178;2023-04-08T06:00:03;102079.78;;;9.59;94.17
43420;BME280;29017;51.514;-0.178;2023-04-08T06:02:30;102085.63;;;9.63;94.43
43420;BME280;29017;51.514;-0.178;2023-04-08T06:04:57;102084.69;;;9.64;94.01
43420;BME280;29017;51.514;-0.178;2023-04-08T06:07:24;102082.75;;;9.66;93.75
43420;BME280;29017;51.514;-0.178;2023-04-08T06:09:51;102089.69;;;9.67;92.84
43420;BME280;29017;51.514;-0.178;2023-04-08T06:12:18;102089.47;;;9.70;91.73
43420;BME280;29017;51.514;-0.178;2023-04-08T06:14:46;102093.53;;;9.74;92.70
43420;BME280;29017;51.514;-0.178;2023-04-08T06:17:13;102089.81;;;9.76;93.07
43420;BME280;29017;51.514;-0.178;2023-04-08T06:19:40;102094.97;;;9.78;92.35
43420;BME280;29017;51.514;-0.178;2023-04-08T06:22:07;102097.50;;;9.79;92.50
43420;BME280;29017;51.514;-0.178;2023-04-08T06:24:34;102093.88;;;9.80;91.82
43420;BME280;29017;51.514;-0.178;2023-04-08T06:27:01;102097.00;;;9.85;91.78
43420;BME280;29017;51.514;-0.178;2023-04-08T06:29:28;102103.59;;;9.91;91.74
43420;BME280;29017;51.514;-0.178;2023-04-08T06:31:55;102115.69;;;9.94;91.20
43420;BME280;29017;51.514;-0.178;2023-04-08T06:34:22;102110.19;;;9.97;90.79
43420;BME280;29017;51.514;-0.178;2023-04-08T06:36:49;102111.63;;;10.01;89.90
43420;BME280;29017;51.514;-0.178;2023-04-08T06:39:17;102108.97;;;10.01;88.94
43420;BME280;29017;51.514;-0.178;2023-04-08T06:41:45;102100.97;;;10.02;88.62
43420;BME280;29017;51.514;-0.178;2023-04-08T06:44:12;102113.06;;;10.05;88.31
43420;BME280;29017;51.514;-0.178;2023-04-08T06:46:38;102109.34;;;10.07;88.64
43420;BME280;29017;51.514;-0.178;2023-04-08T06:49:06;102121.31;;;10.11;88.41
43420;BME280;29017;51.514;-0.178;2023-04-08T06:51:33;102130.44;;;10.18;88.15
43420;BME280;29017;51.514;-0.178;2023-04-08T06:54:00;102127.22;;;10.26;87.30
43420;BME280;29017;51.514;-0.178;2023-04-08T06:56:27;102121.03;;;10.49;86.46
43420;BME280;29017;51.514;-0.178;2023-04-08T06:58:54;102117.28;;;10.85;84.79
43420;BME280;29017;51.514;-0.178;2023-04-08T07:01:21;102116.50;;;11.05;84.67
43420;BME280;29017;51.514;-0.178;2023-04-08T07:03:48;102122.41;;;11.30;84.99
43420;BME280;29017;51.514;-0.178;2023-04-08T07:06:15;102121.50;;;11.72;82.33
43420;BME280;29017;51.514;-0.178;2023-04-08T07:08:42;102133.59;;;12.16;80.05
43420;BME280;29017;51.514;-0.178;2023-04-08T07:11:11;102127.50;;;12.46;78.43
43420;BME280;29017;51.514;-0.178;2023-04-08T07:13:38;102136.72;;;12.61;77.90
43420;BME280;29017;51.514;-0.178;2023-04-08T07:16:05;102143.56;;;12.64;77.11
43420;BME280;29017;51.514;-0.178;2023-04-08T07:18:32;102143.09;;;12.49;76.42
43420;BME280;29017;51.514;-0.178;2023-04-08T07:21:02;102147.63;;;12.37;75.54
43420;BME280;29017;51.514;-0.178;2023-04-08T07:23:29;102151.03;;;12.59;75.59
43420;BME280;29017;51.514;-0.178;2023-04-08T07:26:00;102153.91;;;12.86;75.07
43420;BME280;29017;51.514;-0.178;2023-04-08T07:28:27;102156.72;;;12.94;74.08
43420;BME280;29017;51.514;-0.178;2023-04-08T07:30:54;102154.88;;;13.15;73.22
43420;BME280;29017;51.514;-0.178;2023-04-08T07:33:21;102150.13;;;13.38;72.65
43420;BME280;29017;51.514;-0.178;2023-04-08T07:35:49;102156.00;;;13.70;70.82
43420;BME280;29017;51.514;-0.178;2023-04-08T07:38:16;102169.19;;;13.90;69.28
43420;BME280;29017;51.514;-0.178;2023-04-08T07:40:43;102161.13;;;14.01;68.86
43420;BME280;29017;51.514;-0.178;2023-04-08T07:43:10;102167.22;;;14.11;68.73
43420;BME280;29017;51.514;-0.178;2023-04-08T07:45:37;102173.44;;;14.29;66.92
43420;BME280;29017;51.514;-0.178;2023-04-08T07:48:04;102178.16;;;14.35;67.08
43420;BME280;29017;51.514;-0.178;2023-04-08T07:50:32;102167.00;;;14.51;66.80
43420;BME280;29017;51.514;-0.178;2023-04-08T07:52:59;102173.88;;;14.71;65.85
43420;BME280;29017;51.514;-0.178;2023-04-08T07:55:26;102177.81;;;14.94;65.14
43420;BME280;29017;51.514;-0.178;2023-04-08T07:57:52;102178.25;;;15.35;63.96
43420;BME280;29017;51.514;-0.178;2023-04-08T08:00:20;102180.84;;;15.80;61.74
43420;BME280;29017;51.514;-0.178;2023-04-08T08:02:47;102182.03;;;16.03;60.36
43420;BME280;29017;51.514;-0.178;2023-04-08T08:05:14;102182.25;;;16.10;59.75
43420;BME280;29017;51.514;-0.178;2023-04-08T08:07:41;102188.81;;;15.98;60.14
43420;BME280;29017;51.514;-0.178;2023-04-08T08:10:08;102193.84;;;15.83;60.72
43420;BME280;29017;51.514;-0.178;2023-04-08T08:12:36;102194.34;;;15.87;61.50
43420;BME280;29017;51.514;-0.178;2023-04-08T08:15:03;102195.31;;;16.03;59.65
43420;BME280;29017;51.514;-0.178;2023-04-08T08:17:30;102191.09;;;15.93;59.38
43420;BME280;29017;51.514;-0.178;2023-04-08T08:19:59;102196.47;;;15.48;60.93
43420;BME280;29017;51.514;-0.178;2023-04-08T08:22:28;102197.13;;;15.05;63.24
43420;BME280;29017;51.514;-0.178;2023-04-08T08:24:55;102203.03;;;14.71;63.63
43420;BME280;29017;51.514;-0.178;2023-04-08T08:27:23;102195.88;;;14.44;64.99
43420;BME280;29017;51.514;-0.178;2023-04-08T08:29:50;102194.34;;;14.23;65.34
43420;BME280;29017;51.514;-0.178;2023-04-08T08:32:18;102199.13;;;14.09;66.00
43420;BME280;29017;51.514;-0.178;2023-04-08T08:34:45;102196.50;;;14.00;66.30
43420;BME280;29017;51.514;-0.178;2023-04-08T08:37:12;102200.97;;;13.90;66.26
43420;BME280;29017;51.514;-0.178;2023-04-08T08:39:39;102201.63;;;13.82;66.24
43420;BME280;29017;51.514;-0.178;2023-04-08T08:42:09;102203.88;;;13.77;66.51
43420;BME280;29017;51.514;-0.178;2023-04-08T08:44:44;102201.81;;;13.81;67.38
43420;BME280;29017;51.514;-0.178;2023-04-08T08:47:11;102205.41;;;13.89;68.88
43420;BME280;29017;51.514;-0.178;2023-04-08T08:49:37;102206.13;;;13.91;68.04
43420;BME280;29017;51.514;-0.178;2023-04-08T08:52:05;102209.97;;;13.97;65.87
43420;BME280;29017;51.514;-0.178;2023-04-08T08:54:32;102206.13;;;13.91;65.53
43420;BME280;29017;51.514;-0.178;2023-04-08T08:56:59;102210.00;;;13.87;65.51
43420;BME280;29017;51.514;-0.178;2023-04-08T08:59:26;102211.25;;;13.83;64.94
43420;BME280;29017;51.514;-0.178;2023-04-08T09:01:54;102215.03;;;13.81;64.63
43420;BME280;29017;51.514;-0.178;2023-04-08T09:04:21;102205.13;;;13.73;65.03
43420;BME280;29017;51.514;-0.178;2023-04-08T09:06:49;102211.13;;;13.65;64.30
43420;BME280;29017;51.514;-0.178;2023-04-08T09:09:17;102209.03;;;13.59;64.31
43420;BME280;29017;51.514;-0.178;2023-04-08T09:11:45;102217.25;;;13.66;65.25
43420;BME280;29017;51.514;-0.178;2023-04-08T09:16:42;102209.16;;;13.67;64.19
43420;BME280;29017;51.514;-0.178;2023-04-08T09:19:10;102207.22;;;13.69;65.49
43420;BME280;29017;51.514;-0.178;2023-04-08T09:21:38;102211.56;;;13.70;65.08
43420;BME280;29017;51.514;-0.178;2023-04-08T09:24:07;102201.66;;;13.73;63.45
43420;BME280;29017;51.514;-0.178;2023-04-08T09:26:34;102206.25;;;13.80;62.63
43420;BME280;29017;51.514;-0.178;2023-04-08T09:34:20;102206.66;;;13.95;59.76
43420;BME280;29017;51.514;-0.178;2023-04-08T09:36:49;102208.47;;;13.94;60.07
43420;BME280;29017;51.514;-0.178;2023-04-08T09:39:16;102209.44;;;14.03;60.63
43420;BME280;29017;51.514;-0.178;2023-04-08T09:41:43;102219.47;;;14.09;62.05
43420;BME280;29017;51.514;-0.178;2023-04-08T09:44:14;102215.53;;;14.13;61.44
43420;BME280;29017;51.514;-0.178;2023-04-08T09:49:13;102215.25;;;14.26;59.30
43420;BME280;29017;51.514;-0.178;2023-04-08T09:51:46;102217.19;;;14.43;58.21
43420;BME280;29017;51.514;-0.178;2023-04-08T09:54:18;102218.00;;;14.63;57.08
43420;BME280;29017;51.514;-0.178;2023-04-08T09:56:48;102227.59;;;14.64;56.42
43420;BME280;29017;51.514;-0.178;2023-04-08T09:59:17;102219.06;;;14.70;57.93
43420;BME280;29017;51.514;-0.178;2023-04-08T10:01:49;102225.47;;;14.77;57.12
43420;BME280;29017;51.514;-0.178;2023-04-08T10:04:19;102231.38;;;14.88;57.46
43420;BME280;29017;51.514;-0.178;2023-04-08T10:06:49;102227.06;;;14.97;56.35
43420;BME280;29017;51.514;-0.178;2023-04-08T10:09:20;102224.22;;;15.08;54.74
43420;BME280;29017;51.514;-0.178;2023-04-08T10:11:48;102230.72;;;15.14;55.36
43420;BME280;29017;51.514;-0.178;2023-04-08T10:14:16;102224.59;;;15.13;55.36
43420;BME280;29017;51.514;-0.178;2023-04-08T10:16:43;102219.50;;;15.02;56.61
43420;BME280;29017;51.514;-0.178;2023-04-08T10:21:40;102214.63;;;14.97;57.25
43420;BME280;29017;51.514;-0.178;2023-04-08T10:24:10;102222.88;;;14.94;57.18
43420;BME280;29017;51.514;-0.178;2023-04-08T10:26:38;102216.88;;;14.92;56.71
43420;BME280;29017;51.514;-0.178;2023-04-08T10:31:38;102222.72;;;14.96;55.23
43420;BME280;29017;51.514;-0.178;2023-04-08T10:36:36;102216.13;;;15.00;56.07
43420;BME280;29017;51.514;-0.178;2023-04-08T10:39:03;102215.16;;;15.01;57.49
43420;BME280;29017;51.514;-0.178;2023-04-08T10:41:30;102210.25;;;15.06;56.39
43420;BME280;29017;51.514;-0.178;2023-04-08T10:43:58;102208.72;;;15.04;56.67
43420;BME280;29017;51.514;-0.178;2023-04-08T10:46:27;102204.94;;;15.06;56.81
43420;BME280;29017;51.514;-0.178;2023-04-08T10:51:24;102199.97;;;15.03;56.38
43420;BME280;29017;51.514;-0.178;2023-04-08T10:53:51;102200.63;;;15.05;56.42
43420;BME280;29017;51.514;-0.178;2023-04-08T10:56:18;102194.41;;;14.96;55.31
43420;BME280;29017;51.514;-0.178;2023-04-08T10:58:47;102194.09;;;14.99;55.51
43420;BME280;29017;51.514;-0.178;2023-04-08T11:01:14;102191.84;;;15.05;53.46
43420;BME280;29017;51.514;-0.178;2023-04-08T11:03:42;102192.66;;;15.05;53.42
43420;BME280;29017;51.514;-0.178;2023-04-08T11:06:09;102186.00;;;15.01;54.25
43420;BME280;29017;51.514;-0.178;2023-04-08T11:08:36;102191.44;;;14.99;54.60
43420;BME280;29017;51.514;-0.178;2023-04-08T11:11:04;102193.66;;;15.04;54.64
43420;BME280;29017;51.514;-0.178;2023-04-08T11:13:35;102182.06;;;15.05;55.12
43420;BME280;29017;51.514;-0.178;2023-04-08T11:16:02;102177.75;;;15.04;54.71
43420;BME280;29017;51.514;-0.178;2023-04-08T11:18:43;102184.34;;;15.00;54.65
43420;BME280;29017;51.514;-0.178;2023-04-08T11:21:11;102181.47;;;15.11;52.56
43420;BME280;29017;51.514;-0.178;2023-04-08T11:23:38;102179.66;;;15.12;52.68
43420;BME280;29017;51.514;-0.178;2023-04-08T11:26:05;102181.47;;;15.11;52.90
43420;BME280;29017;51.514;-0.178;2023-04-08T11:28:33;102180.19;;;15.15;53.27
43420;BME280;29017;51.514;-0.178;2023-04-08T11:31:01;102183.38;;;15.19;53.54
43420;BME280;29017;51.514;-0.178;2023-04-08T11:33:30;102189.75;;;15.08;53.18
43420;BME280;29017;51.514;-0.178;2023-04-08T11:35:59;102184.38;;;15.18;52.07
43420;BME280;29017;51.514;-0.178;2023-04-08T11:38:27;102189.50;;;15.19;52.14
43420;BME280;29017;51.514;-0.178;2023-04-08T11:40:55;102190.06;;;15.23;52.08
43420;BME280;29017;51.514;-0.178;2023-04-08T11:43:24;102177.25;;;15.18;52.54
43420;BME280;29017;51.514;-0.178;2023-04-08T11:45:51;102175.34;;;15.11;52.67
43420;BME280;29017;51.514;-0.178;2023-04-08T11:48:18;102182.31;;;15.12;52.21
43420;BME280;29017;51.514;-0.178;2023-04-08T11:50:46;102180.44;;;15.22;51.89
43420;BME280;29017;51.514;-0.178;2023-04-08T11:55:44;102183.72;;;15.33;50.63
43420;BME280;29017;51.514;-0.178;2023-04-08T11:58:12;102182.50;;;15.28;49.79
43420;BME280;29017;51.514;-0.178;2023-04-08T12:00:40;102172.75;;;15.19;50.79
43420;BME280;29017;51.514;-0.178;2023-04-08T12:03:07;102162.06;;;14.93;49.94
43420;BME280;29017;51.514;-0.178;2023-04-08T12:05:34;102166.97;;;14.88;50.13
43420;BME280;29017;51.514;-0.178;2023-04-08T12:08:01;102167.69;;;14.80;50.16
43420;BME280;29017;51.514;-0.178;2023-04-08T12:10:29;102166.28;;;14.86;51.09
43420;BME280;29017;51.514;-0.178;2023-04-08T12:12:56;102157.97;;;14.98;51.30
43420;BME280;29017;51.514;-0.178;2023-04-08T12:15:23;102167.69;;;15.08;51.04
43420;BME280;29017;51.514;-0.178;2023-04-08T12:17:50;102165.72;;;15.10;50.36
43420;BME280;29017;51.514;-0.178;2023-04-08T12:20:17;102175.34;;;15.11;50.23
43420;BME280;29017;51.514;-0.178;2023-04-08T12:22:44;102161.38;;;15.09;50.66
43420;BME280;29017;51.514;-0.178;2023-04-08T12:25:11;102165.03;;;15.08;50.53
43420;BME280;29017;51.514;-0.178;2023-04-08T12:27:38;102157.09;;;15.08;51.07
43420;BME280;29017;51.514;-0.178;2023-04-08T12:30:05;102158.59;;;15.10;49.91
43420;BME280;29017;51.514;-0.178;2023-04-08T12:32:32;102154.44;;;15.08;50.45
43420;BME280;29017;51.514;-0.178;2023-04-08T12:35:02;102152.84;;;15.15;49.36
43420;BME280;29017;51.514;-0.178;2023-04-08T12:37:29;102149.97;;;15.26;49.80
43420;BME280;29017;51.514;-0.178;2023-04-08T12:39:59;102142.31;;;15.40;50.77
43420;BME280;29017;51.514;-0.178;2023-04-08T12:42:26;102142.56;;;15.47;47.45
43420;BME280;29017;51.514;-0.178;2023-04-08T12:44:53;102145.97;;;15.39;48.00
43420;BME280;29017;51.514;-0.178;2023-04-08T12:47:20;102140.28;;;15.34;47.57
43420;BME280;29017;51.514;-0.178;2023-04-08T12:49:51;102140.22;;;15.26;48.19
43420;BME280;29017;51.514;-0.178;2023-04-08T12:52:18;102140.81;;;15.20;48.63
43420;BME280;29017;51.514;-0.178;2023-04-08T12:54:45;102142.03;;;15.26;49.49
43420;BME280;29017;51.514;-0.178;2023-04-08T12:57:12;102138.19;;;15.38;47.12
43420;BME280;29017;51.514;-0.178;2023-04-08T12:59:39;102145.22;;;15.47;47.17
43420;BME280;29017;51.514;-0.178;2023-04-08T13:02:06;102134.28;;;15.50;48.81
43420;BME280;29017;51.514;-0.178;2023-04-08T13:04:36;102139.59;;;15.50;48.04
43420;BME280;29017;51.514;-0.178;2023-04-08T13:07:03;102140.88;;;15.46;48.82
43420;BME280;29017;51.514;-0.178;2023-04-08T13:09:30;102136.88;;;15.42;48.67
43420;BME280;29017;51.514;-0.178;2023-04-08T13:11:57;102142.47;;;15.39;48.23
43420;BME280;29017;51.514;-0.178;2023-04-08T13:14:25;102140.53;;;15.23;47.50
43420;BME280;29017;51.514;-0.178;2023-04-08T13:16:53;102137.03;;;15.23;48.43